sensor_id;sensor_type;location;lat;lon;timestamp;P1;durP1;ratioP1;P2;durP2;ratioP2
68987;SDS011;56038;46.080;11.116;2024-02-16T00:02:48;9.32;;;6.25;;
68987;SDS011;56038;46.080;11.116;2024-02-16T00:07:50;8.98;;;6.13;;
68987;SDS011;56038;46.080;11.116;2024-02-16T00:12:53;11.32;;;6.78;;
68987;SDS011;56038;46.080;11.116;2024-02-16T00:17:55;10.60;;;6.28;;
68987;SDS011;56038;46.080;11.116;2024-02-16T00:22:57;9.20;;;7.35;;
68987;SDS011;56038;46.080;11.116;2024-02-16T00:28:01;10.15;;;6.13;;
68987;SDS011;56038;46.080;11.116;2024-02-16T00:33:03;12.23;;;7.35;;
68987;SDS011;56038;46.080;11.116;2024-02-16T00:38:07;10.35;;;7.38;;
68987;SDS011;56038;46.080;11.116;2024-02-16T00:43:10;12.95;;;7.18;;
68987;SDS011;56038;46.080;11.116;2024-02-16T00:48:12;11.38;;;7.03;;
68987;SDS011;56038;46.080;11.116;2024-02-16T00:53:14;10.52;;;7.10;;
68987;SDS011;56038;46.080;11.116;2024-02-16T00:58:17;10.60;;;6.55;;
68987;SDS011;56038;46.080;11.116;2024-02-16T01:03:19;15.55;;;6.60;;
68987;SDS011;56038;46.080;11.116;2024-02-16T01:08:22;10.25;;;6.57;;
68987;SDS011;56038;46.080;11.116;2024-02-16T01:13:25;10.10;;;6.25;;
68987;SDS011;56038;46.080;11.116;2024-02-16T01:18:28;8.93;;;5.85;;
68987;SDS011;56038;46.080;11.116;2024-02-16T01:23:30;9.85;;;6.30;;
68987;SDS011;56038;46.080;11.116;2024-02-16T01:28:34;9.82;;;6.97;;
68987;SDS011;56038;46.080;11.116;2024-02-16T01:33:35;10.23;;;6.45;;
68987;SDS011;56038;46.080;11.116;2024-02-16T01:38:38;8.48;;;6.40;;
68987;SDS011;56038;46.080;11.116;2024-02-16T01:43:41;9.25;;;6.55;;
68987;SDS011;56038;46.080;11.116;2024-02-16T01:48:43;8.80;;;5.95;;
68987;SDS011;56038;46.080;11.116;2024-02-16T01:53:45;11.07;;;5.50;;
68987;SDS011;56038;46.080;11.116;2024-02-16T01:58:48;12.02;;;5.78;;
68987;SDS011;56038;46.080;11.116;2024-02-16T02:03:50;7.43;;;5.40;;
68987;SDS011;56038;46.080;11.116;2024-02-16T02:08:52;8.07;;;5.78;;
68987;SDS011;56038;46.080;11.116;2024-02-16T02:13:55;9.43;;;5.05;;
68987;SDS011;56038;46.080;11.116;2024-02-16T02:18:57;7.32;;;5.53;;
68987;SDS011;56038;46.080;11.116;2024-02-16T02:24:00;9.73;;;4.88;;
68987;SDS011;56038;46.080;11.116;2024-02-16T02:29:01;5.85;;;4.43;;
68987;SDS011;56038;46.080;11.116;2024-02-16T02:34:04;6.20;;;4.13;;
68987;SDS011;56038;46.080;11.116;2024-02-16T02:39:08;6.28;;;4.07;;
68987;SDS011;56038;46.080;11.116;2024-02-16T02:44:10;6.30;;;4.22;;
68987;SDS011;56038;46.080;11.116;2024-02-16T02:49:12;6.45;;;4.13;;
68987;SDS011;56038;46.080;11.116;2024-02-16T02:54:15;6.30;;;4.13;;
68987;SDS011;56038;46.080;11.116;2024-02-16T02:59:17;6.45;;;4.65;;
68987;SDS011;56038;46.080;11.116;2024-02-16T03:04:18;8.48;;;4.75;;
68987;SDS011;56038;46.080;11.116;2024-02-16T03:09:22;7.82;;;5.47;;
68987;SDS011;56038;46.080;11.116;2024-02-16T03:14:23;6.93;;;4.45;;
68987;SDS011;56038;46.080;11.116;2024-02-16T03:19:25;5.45;;;4.30;;
68987;SDS011;56038;46.080;11.116;2024-02-16T03:24:28;5.10;;;4.45;;
68987;SDS011;56038;46.080;11.116;2024-02-16T03:29:30;5.65;;;4.53;;
68987;SDS011;56038;46.080;11.116;2024-02-16T03:34:32;5.22;;;4.25;;
68987;SDS011;56038;46.080;11.116;2024-02-16T03:39:35;6.32;;;4.72;;
68987;SDS011;56038;46.080;11.116;2024-02-16T03:44:37;4.90;;;4.32;;
68987;SDS011;56038;46.080;11.116;2024-02-16T03:49:38;7.55;;;5.10;;
68987;SDS011;56038;46.080;11.116;2024-02-16T03:54:42;5.47;;;4.20;;
68987;SDS011;56038;46.080;11.116;2024-02-16T03:59:48;6.63;;;4.32;;
68987;SDS011;56038;46.080;11.116;2024-02-16T04:04:49;6.15;;;4.40;;
68987;SDS011;56038;46.080;11.116;2024-02-16T04:09:53;5.70;;;4.25;;
68987;SDS011;56038;46.080;11.116;2024-02-16T04:14:54;6.25;;;4.15;;
68987;SDS011;56038;46.080;11.116;2024-02-16T04:19:56;6.07;;;3.95;;
68987;SDS011;56038;46.080;11.116;2024-02-16T04:24:59;7.95;;;4.80;;
68987;SDS011;56038;46.080;11.116;2024-02-16T04:30:01;8.60;;;4.65;;
68987;SDS011;56038;46.080;11.116;2024-02-16T04:35:04;5.65;;;4.00;;
68987;SDS011;56038;46.080;11.116;2024-02-16T04:40:08;6.65;;;4.43;;
68987;SDS011;56038;46.080;11.116;2024-02-16T04:45:12;6.82;;;5.07;;
68987;SDS011;56038;46.080;11.116;2024-02-16T04:50:14;5.90;;;4.47;;
68987;SDS011;56038;46.080;11.116;2024-02-16T04:55:17;5.10;;;4.57;;
68987;SDS011;56038;46.080;11.116;2024-02-16T05:00:19;7.45;;;4.55;;
68987;SDS011;56038;46.080;11.116;2024-02-16T05:05:21;6.20;;;4.35;;
68987;SDS011;56038;46.080;11.116;2024-02-16T05:10:24;6.15;;;4.15;;
68987;SDS011;56038;46.080;11.116;2024-02-16T05:15:26;5.35;;;4.22;;
68987;SDS011;56038;46.080;11.116;2024-02-16T05:20:28;8.10;;;4.55;;
68987;SDS011;56038;46.080;11.116;2024-02-16T05:25:31;6.10;;;3.80;;
68987;SDS011;56038;46.080;11.116;2024-02-16T05:30:33;6.25;;;4.38;;
68987;SDS011;56038;46.080;11.116;2024-02-16T05:35:35;6.25;;;3.63;;
68987;SDS011;56038;46.080;11.116;2024-02-16T05:40:42;5.82;;;4.10;;
68987;SDS011;56038;46.080;11.116;2024-02-16T05:45:53;6.00;;;4.32;;
68987;SDS011;56038;46.080;11.116;2024-02-16T05:50:56;6.18;;;4.38;;
68987;SDS011;56038;46.080;11.116;2024-02-16T05:56:02;6.05;;;4.45;;
68987;SDS011;56038;46.080;11.116;2024-02-16T06:01:04;7.38;;;4.90;;
68987;SDS011;56038;46.080;11.116;2024-02-16T06:06:06;4.38;;;3.88;;
68987;SDS011;56038;46.080;11.116;2024-02-16T06:11:09;6.93;;;4.15;;
68987;SDS011;56038;46.080;11.116;2024-02-16T06:16:11;5.30;;;4.03;;
68987;SDS011;56038;46.080;11.116;2024-02-16T06:21:13;4.47;;;3.72;;
68987;SDS011;56038;46.080;11.116;2024-02-16T06:26:17;5.80;;;3.55;;
68987;SDS011;56038;46.080;11.116;2024-02-16T06:31:20;6.28;;;4.18;;
68987;SDS011;56038;46.080;11.116;2024-02-16T06:36:22;8.00;;;4.85;;
68987;SDS011;56038;46.080;11.116;2024-02-16T06:41:25;6.18;;;4.68;;
68987;SDS011;56038;46.080;11.116;2024-02-16T06:46:27;9.90;;;5.00;;
68987;SDS011;56038;46.080;11.116;2024-02-16T06:51:29;10.32;;;4.55;;
68987;SDS011;56038;46.080;11.116;2024-02-16T06:56:32;6.15;;;3.85;;
68987;SDS011;56038;46.080;11.116;2024-02-16T07:01:34;6.68;;;4.68;;
68987;SDS011;56038;46.080;11.116;2024-02-16T07:06:36;4.18;;;3.13;;
68987;SDS011;56038;46.080;11.116;2024-02-16T07:11:39;5.22;;;3.67;;
68987;SDS011;56038;46.080;11.116;2024-02-16T07:16:42;8.73;;;3.65;;
68987;SDS011;56038;46.080;11.116;2024-02-16T07:21:44;5.70;;;4.05;;
68987;SDS011;56038;46.080;11.116;2024-02-16T07:26:47;8.80;;;4.40;;
68987;SDS011;56038;46.080;11.116;2024-02-16T07:31:49;24.05;;;6.65;;
68987;SDS011;56038;46.080;11.116;2024-02-16T07:36:52;13.43;;;5.68;;
68987;SDS011;56038;46.080;11.116;2024-02-16T07:41:55;15.57;;;6.50;;
68987;SDS011;56038;46.080;11.116;2024-02-16T07:46:57;8.65;;;5.20;;
68987;SDS011;56038;46.080;11.116;2024-02-16T07:51:59;8.13;;;4.25;;
68987;SDS011;56038;46.080;11.116;2024-02-16T07:57:02;7.07;;;4.25;;
68987;SDS011;56038;46.080;11.116;2024-02-16T08:02:04;6.15;;;3.70;;
68987;SDS011;56038;46.080;11.116;2024-02-16T08:07:07;5.93;;;3.72;;
68987;SDS011;56038;46.080;11.116;2024-02-16T08:12:10;3.22;;;2.92;;
68987;SDS011;56038;46.080;11.116;2024-02-16T08:17:12;5.93;;;3.95;;
68987;SDS011;56038;46.080;11.116;2024-02-16T08:22:14;10.85;;;4.25;;
68987;SDS011;56038;46.080;11.116;2024-02-16T08:27:17;3.90;;;3.35;;
68987;SDS011;56038;46.080;11.116;2024-02-16T08:32:19;4.07;;;3.15;;
68987;SDS011;56038;46.080;11.116;2024-02-16T08:37:21;4.85;;;3.83;;
68987;SDS011;56038;46.080;11.116;2024-02-16T08:42:24;3.80;;;3.45;;
68987;SDS011;56038;46.080;11.116;2024-02-16T08:47:26;4.55;;;3.80;;
68987;SDS011;56038;46.080;11.116;2024-02-16T08:52:28;5.22;;;3.83;;
68987;SDS011;56038;46.080;11.116;2024-02-16T08:57:32;7.70;;;4.45;;
68987;SDS011;56038;46.080;11.116;2024-02-16T09:02:34;6.28;;;4.38;;
68987;SDS011;56038;46.080;11.116;2024-02-16T09:07:36;6.18;;;3.85;;
68987;SDS011;56038;46.080;11.116;2024-02-16T09:12:39;10.73;;;4.45;;
68987;SDS011;56038;46.080;11.116;2024-02-16T09:17:41;4.90;;;4.20;;
68987;SDS011;56038;46.080;11.116;2024-02-16T09:22:43;8.15;;;4.47;;
68987;SDS011;56038;46.080;11.116;2024-02-16T09:27:48;10.60;;;5.65;;
68987;SDS011;56038;46.080;11.116;2024-02-16T09:32:50;11.80;;;5.95;;
68987;SDS011;56038;46.080;11.116;2024-02-16T09:37:52;11.55;;;5.18;;
68987;SDS011;56038;46.080;11.116;2024-02-16T09:42:55;11.60;;;5.03;;
68987;SDS011;56038;46.080;11.116;2024-02-16T09:47:58;5.75;;;4.45;;
68987;SDS011;56038;46.080;11.116;2024-02-16T09:53:00;4.90;;;4.13;;
68987;SDS011;56038;46.080;11.116;2024-02-16T09:58:07;4.13;;;3.40;;
68987;SDS011;56038;46.080;11.116;2024-02-16T10:03:08;4.53;;;3.63;;
68987;SDS011;56038;46.080;11.116;2024-02-16T10:08:22;3.67;;;3.38;;
68987;SDS011;56038;46.080;11.116;2024-02-16T10:13:25;4.18;;;3.58;;
68987;SDS011;56038;46.080;11.116;2024-02-16T10:18:27;9.52;;;3.83;;
68987;SDS011;56038;46.080;11.116;2024-02-16T10:23:29;4.30;;;3.90;;
68987;SDS011;56038;46.080;11.116;2024-02-16T10:28:32;5.47;;;3.97;;
68987;SDS011;56038;46.080;11.116;2024-02-16T10:33:34;4.65;;;3.40;;
68987;SDS011;56038;46.080;11.116;2024-02-16T10:38:37;5.70;;;3.55;;
68987;SDS011;56038;46.080;11.116;2024-02-16T10:43:44;5.50;;;3.55;;
68987;SDS011;56038;46.080;11.116;2024-02-16T10:48:50;6.30;;;3.78;;
68987;SDS011;56038;46.080;11.116;2024-02-16T10:53:52;4.90;;;3.20;;
68987;SDS011;56038;46.080;11.116;2024-02-16T10:59:01;6.40;;;3.80;;
68987;SDS011;56038;46.080;11.116;2024-02-16T11:04:04;3.60;;;3.30;;
68987;SDS011;56038;46.080;11.116;2024-02-16T11:09:08;4.10;;;3.58;;
68987;SDS011;56038;46.080;11.116;2024-02-16T11:14:15;6.68;;;3.42;;
68987;SDS011;56038;46.080;11.116;2024-02-16T11:19:17;3.65;;;3.30;;
68987;SDS011;56038;46.080;11.116;2024-02-16T11:24:19;4.45;;;3.05;;
68987;SDS011;56038;46.080;11.116;2024-02-16T11:29:33;3.63;;;2.67;;
68987;SDS011;56038;46.080;11.116;2024-02-16T11:34:38;5.35;;;2.55;;
68987;SDS011;56038;46.080;11.116;2024-02-16T11:39:40;11.50;;;8.32;;
68987;SDS011;56038;46.080;11.116;2024-02-16T11:44:51;5.43;;;2.97;;
68987;SDS011;56038;46.080;11.116;2024-02-16T11:50:00;3.22;;;2.58;;
68987;SDS011;56038;46.080;11.116;2024-02-16T11:55:04;3.25;;;2.80;;
68987;SDS011;56038;46.080;11.116;2024-02-16T12:00:11;2.65;;;2.40;;
68987;SDS011;56038;46.080;11.116;2024-02-16T12:05:15;2.58;;;2.38;;
68987;SDS011;56038;46.080;11.116;2024-02-16T12:10:16;5.40;;;3.63;;
68987;SDS011;56038;46.080;11.116;2024-02-16T12:15:20;5.95;;;2.58;;
68987;SDS011;56038;46.080;11.116;2024-02-16T12:20:23;2.88;;;2.20;;
68987;SDS011;56038;46.080;11.116;2024-02-16T12:25:24;4.05;;;2.42;;
68987;SDS011;56038;46.080;11.116;2024-02-16T12:30:28;2.20;;;1.90;;
68987;SDS011;56038;46.080;11.116;2024-02-16T12:35:29;3.50;;;2.20;;
68987;SDS011;56038;46.080;11.116;2024-02-16T12:40:31;2.90;;;2.20;;
68987;SDS011;56038;46.080;11.116;2024-02-16T12:45:34;3.30;;;2.25;;
68987;SDS011;56038;46.080;11.116;2024-02-16T12:50:36;3.53;;;2.22;;
68987;SDS011;56038;46.080;11.116;2024-02-16T12:55:39;6.18;;;2.63;;
68987;SDS011;56038;46.080;11.116;2024-02-16T13:00:42;3.17;;;2.65;;
68987;SDS011;56038;46.080;11.116;2024-02-16T13:05:44;2.55;;;2.22;;
68987;SDS011;56038;46.080;11.116;2024-02-16T13:10:45;3.60;;;2.63;;
68987;SDS011;56038;46.080;11.116;2024-02-16T13:15:49;5.13;;;2.20;;
68987;SDS011;56038;46.080;11.116;2024-02-16T13:20:50;2.78;;;2.15;;
68987;SDS011;56038;46.080;11.116;2024-02-16T13:25:52;1.98;;;1.52;;
68987;SDS011;56038;46.080;11.116;2024-02-16T13:30:56;1.85;;;1.50;;
68987;SDS011;56038;46.080;11.116;2024-02-16T13:35:58;3.00;;;1.80;;
68987;SDS011;56038;46.080;11.116;2024-02-16T13:41:00;2.33;;;1.90;;
68987;SDS011;56038;46.080;11.116;2024-02-16T13:46:03;4.85;;;2.45;;
68987;SDS011;56038;46.080;11.116;2024-02-16T13:51:05;3.10;;;2.65;;
68987;SDS011;56038;46.080;11.116;2024-02-16T13:56:08;2.25;;;2.05;;
68987;SDS011;56038;46.080;11.116;2024-02-16T14:01:11;4.65;;;2.00;;
68987;SDS011;56038;46.080;11.116;2024-02-16T14:06:13;3.55;;;2.55;;
68987;SDS011;56038;46.080;11.116;2024-02-16T14:11:14;3.42;;;2.65;;
68987;SDS011;56038;46.080;11.116;2024-02-16T14:16:18;2.88;;;2.42;;
68987;SDS011;56038;46.080;11.116;2024-02-16T14:21:20;3.47;;;2.22;;
68987;SDS011;56038;46.080;11.116;2024-02-16T14:26:22;3.42;;;2.65;;
68987;SDS011;56038;46.080;11.116;2024-02-16T14:31:25;5.07;;;2.60;;
68987;SDS011;56038;46.080;11.116;2024-02-16T14:36:27;3.75;;;2.50;;
68987;SDS011;56038;46.080;11.116;2024-02-16T14:41:29;4.13;;;2.45;;
68987;SDS011;56038;46.080;11.116;2024-02-16T14:46:32;3.90;;;2.60;;
68987;SDS011;56038;46.080;11.116;2024-02-16T14:51:34;6.45;;;3.67;;
68987;SDS011;56038;46.080;11.116;2024-02-16T14:56:40;7.63;;;3.40;;
68987;SDS011;56038;46.080;11.116;2024-02-16T15:01:44;5.22;;;2.88;;
68987;SDS011;56038;46.080;11.116;2024-02-16T15:06:46;5.75;;;3.10;;
68987;SDS011;56038;46.080;11.116;2024-02-16T15:11:48;5.72;;;3.03;;
68987;SDS011;56038;46.080;11.116;2024-02-16T15:16:51;6.82;;;3.88;;
68987;SDS011;56038;46.080;11.116;2024-02-16T15:21:53;6.90;;;3.17;;
68987;SDS011;56038;46.080;11.116;2024-02-16T15:26:55;6.05;;;3.83;;
68987;SDS011;56038;46.080;11.116;2024-02-16T15:31:59;7.70;;;4.00;;
68987;SDS011;56038;46.080;11.116;2024-02-16T15:37:01;6.45;;;4.15;;
68987;SDS011;56038;46.080;11.116;2024-02-16T15:42:04;8.38;;;3.83;;
68987;SDS011;56038;46.080;11.116;2024-02-16T15:47:08;9.40;;;5.45;;
68987;SDS011;56038;46.080;11.116;2024-02-16T15:52:11;10.77;;;4.87;;
68987;SDS011;56038;46.080;11.116;2024-02-16T15:57:13;10.60;;;5.30;;
68987;SDS011;56038;46.080;11.116;2024-02-16T16:02:16;12.15;;;5.78;;
68987;SDS011;56038;46.080;11.116;2024-02-16T16:07:18;12.05;;;5.25;;
68987;SDS011;56038;46.080;11.116;2024-02-16T16:12:20;13.85;;;6.93;;
68987;SDS011;56038;46.080;11.116;2024-02-16T16:17:23;11.23;;;6.07;;
68987;SDS011;56038;46.080;11.116;2024-02-16T16:22:25;13.35;;;7.10;;
68987;SDS011;56038;46.080;11.116;2024-02-16T16:27:27;10.70;;;6.28;;
68987;SDS011;56038;46.080;11.116;2024-02-16T16:32:30;15.35;;;7.50;;
68987;SDS011;56038;46.080;11.116;2024-02-16T16:37:32;17.27;;;9.30;;
68987;SDS011;56038;46.080;11.116;2024-02-16T16:42:34;16.73;;;8.60;;
68987;SDS011;56038;46.080;11.116;2024-02-16T16:47:37;18.90;;;10.27;;
68987;SDS011;56038;46.080;11.116;2024-02-16T16:52:38;19.55;;;11.35;;
68987;SDS011;56038;46.080;11.116;2024-02-16T16:57:40;25.75;;;13.15;;
68987;SDS011;56038;46.080;11.116;2024-02-16T17:02:44;17.77;;;11.05;;
68987;SDS011;56038;46.080;11.116;2024-02-16T17:07:47;20.65;;;11.50;;
68987;SDS011;56038;46.080;11.116;2024-02-16T17:12:49;20.73;;;11.77;;
68987;SDS011;56038;46.080;11.116;2024-02-16T17:17:52;21.70;;;14.40;;
68987;SDS011;56038;46.080;11.116;2024-02-16T17:22:55;23.48;;;13.82;;
68987;SDS011;56038;46.080;11.116;2024-02-16T17:27:57;21.52;;;12.23;;
68987;SDS011;56038;46.080;11.116;2024-02-16T17:33:01;24.20;;;12.73;;
68987;SDS011;56038;46.080;11.116;2024-02-16T17:38:03;24.33;;;14.35;;
68987;SDS011;56038;46.080;11.116;2024-02-16T17:43:05;23.67;;;12.48;;
68987;SDS011;56038;46.080;11.116;2024-02-16T17:48:08;23.70;;;13.75;;
68987;SDS011;56038;46.080;11.116;2024-02-16T17:53:11;27.42;;;14.13;;
68987;SDS011;56038;46.080;11.116;2024-02-16T17:58:12;24.50;;;14.95;;
68987;SDS011;56038;46.080;11.116;2024-02-16T18:03:15;21.30;;;13.25;;
68987;SDS011;56038;46.080;11.116;2024-02-16T18:08:18;26.65;;;15.75;;
68987;SDS011;56038;46.080;11.116;2024-02-16T18:13:20;27.67;;;15.15;;
68987;SDS011;56038;46.080;11.116;2024-02-16T18:18:23;23.38;;;13.57;;
68987;SDS011;56038;46.080;11.116;2024-02-16T18:23:26;15.18;;;9.95;;
68987;SDS011;56038;46.080;11.116;2024-02-16T18:28:28;19.70;;;11.23;;
68987;SDS011;56038;46.080;11.116;2024-02-16T18:33:32;13.48;;;9.13;;
68987;SDS011;56038;46.080;11.116;2024-02-16T18:38:33;15.27;;;8.60;;
68987;SDS011;56038;46.080;11.116;2024-02-16T18:43:36;13.82;;;8.57;;
68987;SDS011;56038;46.080;11.116;2024-02-16T18:48:39;12.65;;;8.45;;
68987;SDS011;56038;46.080;11.116;2024-02-16T18:53:42;11.15;;;7.78;;
68987;SDS011;56038;46.080;11.116;2024-02-16T18:58:44;10.32;;;7.32;;
68987;SDS011;56038;46.080;11.116;2024-02-16T19:03:47;14.40;;;9.02;;
68987;SDS011;56038;46.080;11.116;2024-02-16T19:08:49;12.43;;;8.40;;
68987;SDS011;56038;46.080;11.116;2024-02-16T19:13:51;15.93;;;9.20;;
68987;SDS011;56038;46.080;11.116;2024-02-16T19:18:55;14.10;;;8.32;;
68987;SDS011;56038;46.080;11.116;2024-02-16T19:23:56;17.13;;;10.43;;
68987;SDS011;56038;46.080;11.116;2024-02-16T19:28:58;15.95;;;11.13;;
68987;SDS011;56038;46.080;11.116;2024-02-16T19:34:01;15.65;;;9.75;;
68987;SDS011;56038;46.080;11.116;2024-02-16T19:39:04;15.23;;;8.90;;
68987;SDS011;56038;46.080;11.116;2024-02-16T19:44:07;12.38;;;8.45;;
68987;SDS011;56038;46.080;11.116;2024-02-16T19:49:10;14.57;;;9.63;;
68987;SDS011;56038;46.080;11.116;2024-02-16T19:54:12;17.30;;;10.45;;
68987;SDS011;56038;46.080;11.116;2024-02-16T19:59:15;14.75;;;9.73;;
68987;SDS011;56038;46.080;11.116;2024-02-16T20:04:19;14.63;;;9.20;;
68987;SDS011;56038;46.080;11.116;2024-02-16T20:09:20;14.05;;;9.85;;
68987;SDS011;56038;46.080;11.116;2024-02-16T20:14:22;13.65;;;8.43;;
68987;SDS011;56038;46.080;11.116;2024-02-16T20:19:25;14.23;;;9.38;;
68987;SDS011;56038;46.080;11.116;2024-02-16T20:24:28;13.63;;;9.43;;
68987;SDS011;56038;46.080;11.116;2024-02-16T20:29:29;12.95;;;9.18;;
68987;SDS011;56038;46.080;11.116;2024-02-16T20:34:33;10.65;;;7.70;;
68987;SDS011;56038;46.080;11.116;2024-02-16T20:39:35;14.52;;;9.48;;
68987;SDS011;56038;46.080;11.116;2024-02-16T20:44:39;16.25;;;9.25;;
68987;SDS011;56038;46.080;11.116;2024-02-16T20:49:42;12.18;;;9.13;;
68987;SDS011;56038;46.080;11.116;2024-02-16T20:54:43;11.40;;;8.57;;
68987;SDS011;56038;46.080;11.116;2024-02-16T20:59:45;20.20;;;10.15;;
68987;SDS011;56038;46.080;11.116;2024-02-16T21:04:48;14.63;;;9.05;;
68987;SDS011;56038;46.080;11.116;2024-02-16T21:09:50;19.52;;;11.00;;
68987;SDS011;56038;46.080;11.116;2024-02-16T21:14:52;18.13;;;10.18;;
68987;SDS011;56038;46.080;11.116;2024-02-16T21:19:55;15.73;;;10.48;;
68987;SDS011;56038;46.080;11.116;2024-02-16T21:24:57;15.57;;;10.18;;
68987;SDS011;56038;46.080;11.116;2024-02-16T21:29:58;15.18;;;10.32;;
68987;SDS011;56038;46.080;11.116;2024-02-16T21:35:02;19.17;;;10.18;;
68987;SDS011;56038;46.080;11.116;2024-02-16T21:40:07;19.95;;;10.60;;
68987;SDS011;56038;46.080;11.116;2024-02-16T21:45:10;21.80;;;10.10;;
68987;SDS011;56038;46.080;11.116;2024-02-16T21:50:13;32.97;;;17.98;;
68987;SDS011;56038;46.080;11.116;2024-02-16T21:55:18;28.52;;;16.40;;
68987;SDS011;56038;46.080;11.116;2024-02-16T22:00:20;20.95;;;12.68;;
68987;SDS011;56038;46.080;11.116;2024-02-16T22:05:23;23.65;;;12.75;;
68987;SDS011;56038;46.080;11.116;2024-02-16T22:10:25;22.75;;;12.43;;
68987;SDS011;56038;46.080;11.116;2024-02-16T22:15:27;20.23;;;11.68;;
68987;SDS011;56038;46.080;11.116;2024-02-16T22:20:31;21.42;;;12.38;;
68987;SDS011;56038;46.080;11.116;2024-02-16T22:25:34;24.10;;;12.88;;
68987;SDS011;56038;46.080;11.116;2024-02-16T22:30:37;22.08;;;12.18;;
68987;SDS011;56038;46.080;11.116;2024-02-16T22:35:40;19.42;;;11.13;;
68987;SDS011;56038;46.080;11.116;2024-02-16T22:40:42;19.20;;;11.27;;
68987;SDS011;56038;46.080;11.116;2024-02-16T22:45:43;18.40;;;10.95;;
68987;SDS011;56038;46.080;11.116;2024-02-16T22:50:47;19.55;;;12.65;;
68987;SDS011;56038;46.080;11.116;2024-02-16T22:55:49;19.13;;;11.38;;
68987;SDS011;56038;46.080;11.116;2024-02-16T23:00:51;17.63;;;11.55;;
68987;SDS011;56038;46.080;11.116;2024-02-16T23:05:54;16.52;;;10.48;;
68987;SDS011;56038;46.080;11.116;2024-02-16T23:10:59;15.20;;;10.07;;
68987;SDS011;56038;46.080;11.116;2024-02-16T23:16:02;16.08;;;10.45;;
68987;SDS011;56038;46.080;11.116;2024-02-16T23:21:06;18.63;;;10.40;;
68987;SDS011;56038;46.080;11.116;2024-02-16T23:26:07;12.40;;;8.93;;
68987;SDS011;56038;46.080;11.116;2024-02-16T23:31:09;18.30;;;10.88;;
68987;SDS011;56038;46.080;11.116;2024-02-16T23:36:13;19.25;;;10.43;;
68987;SDS011;56038;46.080;11.116;2024-02-16T23:41:15;15.85;;;9.95;;
68987;SDS011;56038;46.080;11.116;2024-02-16T23:46:17;14.07;;;8.55;;
68987;SDS011;56038;46.080;11.116;2024-02-16T23:51:20;14.50;;;9.40;;
68987;SDS011;56038;46.080;11.116;2024-02-16T23:56:23;14.75;;;9.00;;
